Edmond, OK (73003)

7:27 PM CST on March 01, 2015 (GMT -0600)
Cumberland Crossing | Change Station
CLOSE
Current Station
Personal Weather Station
Location: Edmond, OK
Elevation: 1079 ft
Nearby Weather Stations

Elev 1079 ft 35.71 °N, 97.55 °W | Updated 1 second ago

Mostly Cloudy
Mostly Cloudy
30.8 °F
Feels Like 31 °F
N
0.0
Wind Variable Wind from NNW
Gusts 3.0 mph

Today
High -- | Low -- °F
--% Chance of Precip.
Yesterday
High -- | Low -- °F
Precip. -- in
7:00 AM 6:25 PM
Waxing Gibbous, 88% visible
Pressure 30.43 in
Visibility 7.0 miles
Clouds Overcast 2100 ft
Windchill 31 °F
Dew Point 26 °F
Humidity 81%
Rainfall 0.11 in
Snow Depth Not available.
UV 0.0 out of 12
Pollen 6.20 out of 12
Air Quality Not available.
Flu Activity Not available.
METAR KPWA 020053Z 03012KT 7SM OVC021 00/M04 A3039 RMK AO2 SLP303 T00001039 $

More Conditions Fewer Conditions

Pressure 30.43 in
Visibility 7.0 miles
Clouds Overcast 2100 ft
Windchill 31 °F
Dew Point 26 °F
Humidity 81%
Rainfall 0.11 in
Snow Depth Not available.
UV 0.0 out of 12
Pollen 6.20 out of 12
Air Quality Not available.
Flu Activity Not available.
METAR KPWA 020053Z 03012KT 7SM OVC021 00/M04 A3039 RMK AO2 SLP303 T00001039 $

More Conditions Fewer Conditions

10-Day Weather Forecast

Almanac

Astronomy

Mar. 01, 2015 Rise Set
Actual Time
Civil Twilight
Nautical Twilight
Astronomical Twilight
Moon
Length of Visible Light
Length of Day
Tomorrow will be .
, % of the Moon is Illuminated

Today's Extremes

State Highs State Lows

Community

WunderPhotos

Upload Photos

1,801,678 photos uploaded!

WunderBlogs® & News

Nearby

Air Quality

  Air Quality AQ Index Pollutant
Not available.

Snow Depth

Station Depth Elevation

Earthquake Activity

City Distance Mag. Time & Date
Minimum magnitude displayed is 2.5.

Coastal Water Temperatures

Place Temperature

Nearby Weather Stations